Latest Coastal Weather Observations for Samuel Hill

IDQ60701

Issued at 9:45 am EST Wednesday 3 September 2014 (issued every 10 minutes, with the page automatically refreshed every 10 minutes)

About coastal observations | Map of coastal stations | Coastal observations for QLD | Marine services | Other Formats
Station Details ID: 033308 Name: SAMUEL HILL AERO Lat: -22.74 Lon: 150.66 Height: 31.0 m
Data from the previous 72 hours. | See also: Recent months at Samuel Hill
Date/Time
EST
Temp

°C
Wind Pressure Rain
since 9am
mm
Weather Cloud Vis
km
Sea
Height
m
Swell
Dir
 
Speed
knots
Gust
knots
hPa Trend Height
m
Period
s
Dir
03/09:30am 17.9 SSE 9 15 1017.7 - 0.0 - - 10 - - - -
03/09:00am 17.3 S 10 17 1018.1 - 0.2 - - 10 - - - -
03/08:30am 16.9 S 7 13 1018.0 - 0.2 - - 10 - - - -
03/08:00am 15.8 S 7 10 1018.1 - 0.2 - - 10 - - - -
03/07:30am 15.1 S 7 9 1017.7 - 0.2 - - 10 - - - -
03/07:00am 14.3 S 5 7 1017.2 - 0.2 - - 10 - - - -
03/06:30am 14.6 S 8 11 1016.7 - 0.2 - - 10 - - - -
03/06:00am 13.1 SSE 6 8 1016.3 - 0.2 - - 10 - - - -
03/05:41am 13.2 SE 5 9 1016.1 - 0.2 - - 10 - - - -
03/05:30am 7.1 SSE 3 5 1016.0 - 0.2 - - 10 - - - -
03/05:00am 7.8 CALM 0 0 1015.6 - 0.2 - - 10 - - - -
03/04:30am 7.8 E 4 6 1015.1 - 0.2 - - 10 - - - -
03/04:00am 9.6 E 4 4 1014.8 - 0.2 - - 10 - - - -
03/03:54am 10.0 ESE 3 4 1014.8 - 0.2 - - 10 - - - -
03/03:30am 15.0 S 5 10 1014.6 - 0.2 - - 10 - - - -
03/03:00am 17.2 S 9 14 1014.6 - 0.2 - - 10 - - - -
03/02:49am 15.9 S 7 12 1014.6 - 0.2 - - 10 - - - -
03/02:30am 10.7 N 1 3 1014.5 - 0.2 - - 10 - - - -
03/02:00am 11.0 S 1 4 1014.6 - 0.2 - - 10 - - - -
03/01:30am 12.0 CALM 0 0 1014.5 - 0.2 - - 10 - - - -
03/01:00am 12.9 N 4 5 1014.4 - 0.2 - - 10 - - - -
03/12:30am 13.7 W 3 6 1014.5 - 0.2 - - 10 - - - -
03/12:00am 14.7 WSW 5 6 1014.3 - 0.2 - - 10 - - - -
 
Date/Time
EST
Temp

°C
Wind Pressure Rain
since 9am
mm
Weather Cloud Vis
km
Sea
Height
m
Swell
Dir
 
Speed
knots
Gust
knots
hPa Trend Height
m
Period
s
Dir
02/11:30pm 15.9 SW 4 7 1014.2 - 0.2 - - 10 - - - -
02/11:00pm 16.5 SW 4 5 1014.0 - 0.2 - - 10 - - - -
02/10:30pm 17.9 NW 5 8 1013.7 - 0.2 - - 10 - - - -
02/10:00pm 16.8 NW 5 6 1013.7 - 0.2 - - 10 - - - -
02/09:30pm 14.7 NW 1 5 1013.6 - 0.2 - - 10 - - - -
02/09:00pm 15.6 NW 2 4 1013.6 - 0.2 - - 10 - - - -
02/08:30pm 16.2 NW 3 5 1013.4 - 0.2 - - 10 - - - -
02/08:00pm 17.9 WNW 4 5 1013.2 - 0.2 - - 10 - - - -
02/07:30pm 18.4 NNW 4 6 1013.1 - 0.2 - Partly cloudy 10 - - - -
02/07:00pm 18.9 NW 4 7 1012.6 - 0.2 - - 10 - - - -
02/06:30pm 19.3 NW 7 10 1012.3 - 0.2 - - 10 - - - -
02/06:00pm 20.1 NW 7 11 1012.2 - 0.2 - - 10 - - - -
02/05:30pm 21.1 NNW 8 11 1012.0 - 0.2 - - 10 - - - -
02/05:00pm 22.5 NNW 9 15 1012.0 - 0.2 - - 10 - - - -
02/04:30pm 23.2 NNW 9 16 1011.8 - 0.2 - - 10 - - - -
02/04:00pm 23.9 N 9 12 1011.7 - 0.2 - - 10 - - - -
02/03:30pm 23.9 NNW 11 16 1011.9 - 0.2 - - 10 - - - -
02/03:00pm 24.2 NNW 11 16 1011.9 - 0.2 - - 10 - - - -
02/02:30pm 24.7 NNW 12 17 1012.2 - 0.2 - - 10 - - - -
02/02:00pm 24.8 NNW 12 18 1012.7 - 0.2 - - 10 - - - -
02/01:30pm 24.7 NNW 11 18 1013.3 - 0.2 - - 10 - - - -
02/01:00pm 24.8 N 12 17 1013.7 - 0.2 - - 10 - - - -
02/12:30pm 25.0 NNW 9 15 1014.2 - 0.2 - - 10 - - - -
02/12:00pm 25.0 NNW 11 14 1014.8 - 0.2 - - 10 - - - -
02/11:30am 24.5 NNW 11 14 1015.4 - 0.2 - - 10 - - - -
02/11:00am 23.7 NW 11 15 1015.8 - 0.2 - - 10 - - - -
02/10:30am 23.9 NNW 10 16 1016.4 - 0.2 - - 10 - - - -
02/10:00am 23.0 NNW 10 15 1016.9 - 0.0 - - 10 - - - -
02/09:30am 22.2 NNW 10 14 1017.4 - 0.0 - - 10 - - - -
02/09:00am 21.2 NW 10 16 1017.5 - 0.0 - - 10 - - - -
02/08:30am 20.0 NNW 4 7 1017.5 - 0.0 - - 10 - - - -
02/08:00am 16.4 CALM 0 0 1017.4 - 0.0 - - 10 - - - -
02/07:39am 14.3 CALM 0 0 1017.3 - 0.0 - Partly cloudy 10 - - - -
02/07:37am 14.0 CALM 0 0 1017.4 - 0.0 - Partly cloudy 10 - - - -
02/07:30am 13.2 CALM 0 0 1017.4 - 0.0 - Partly cloudy 8 - - - -
02/07:00am 9.7 CALM 0 0 1017.3 - 0.0 - Cloudy 0.4 - - - -
02/06:30am 8.0 CALM 0 0 1017.2 - 0.0 - Cloudy 0.2 - - - -
02/06:16am 7.8 CALM 0 0 1017.1 - 0.0 - Partly cloudy 0.2 - - - -
02/06:00am 7.6 CALM 0 0 1017.1 - 0.0 - - 2 - - - -
02/05:55am 7.6 CALM 0 0 1017.1 - 0.0 - Partly cloudy 3 - - - -
02/05:30am 7.9 CALM 0 0 1016.8 - 0.0 - Cloudy 0.4 - - - -
02/05:00am 8.1 CALM 0 0 1016.7 - 0.0 - Cloudy 0.3 - - - -
02/04:48am 7.8 CALM 0 0 1016.7 - 0.0 - Partly cloudy 0.3 - - - -
02/04:38am 7.7 CALM 0 0 1016.7 - 0.0 - Partly cloudy 7 - - - -
02/04:30am 8.0 CALM 0 0 1016.8 - 0.0 - - 10 - - - -
02/04:00am 8.3 CALM 0 0 1016.7 - 0.0 - - 10 - - - -
02/03:30am 8.6 CALM 0 0 1016.6 - 0.0 - - 10 - - - -
02/03:00am 8.9 CALM 0 0 1016.8 - 0.0 - - 10 - - - -
02/02:30am 8.4 CALM 0 0 1017.0 - 0.0 - - 10 - - - -
02/02:00am 9.3 CALM 0 0 1017.4 - 0.0 - - 10 - - - -
02/01:30am 8.9 CALM 0 0 1017.2 - 0.0 - - 10 - - - -
02/01:00am 9.4 CALM 0 0 1017.7 - 0.0 - - 10 - - - -
02/12:30am 9.8 CALM 0 0 1017.8 - 0.0 - - 10 - - - -
02/12:00am 10.0 CALM 0 0 1017.7 - 0.0 - - 10 - - - -
 
Date/Time
EST
Temp

°C
Wind Pressure Rain
since 9am
mm
Weather Cloud Vis
km
Sea
Height
m
Swell
Dir
 
Speed
knots
Gust
knots
hPa Trend Height
m
Period
s
Dir
01/11:30pm 10.6 WSW 4 5 1017.9 - 0.0 - - 10 - - - -
01/11:00pm 10.1 CALM 0 0 1018.0 - 0.0 - - 10 - - - -
01/10:30pm 10.9 CALM 0 0 1018.3 - 0.0 - - 10 - - - -
01/10:00pm 11.1 CALM 0 0 1018.4 - 0.0 - - 10 - - - -
01/09:30pm 11.5 CALM 0 0 1018.4 - 0.0 - - 10 - - - -
01/09:00pm 11.9 CALM 0 0 1018.5 - 0.0 - - 10 - - - -
01/08:30pm 12.9 CALM 0 0 1018.3 - 0.0 - - 10 - - - -
01/08:00pm 13.4 CALM 0 0 1018.2 - 0.0 - - 10 - - - -
01/07:30pm 14.3 W 1 4 1018.2 - 0.0 - - 10 - - - -
01/07:00pm 15.4 NE 3 4 1017.7 - 0.0 - - 10 - - - -
01/06:30pm 16.5 NE 3 5 1017.4 - 0.0 - - 10 - - - -
01/06:00pm 18.5 NE 4 5 1017.1 - 0.0 - - 10 - - - -
01/05:30pm 20.7 NE 6 8 1016.9 - 0.0 - - 10 - - - -
01/05:00pm 22.1 NE 8 12 1016.8 - 0.0 - - 10 - - - -
01/04:30pm 23.1 NE 7 11 1016.5 - 0.0 - - 10 - - - -
01/04:00pm 23.6 NE 10 13 1016.1 - 0.0 - - 10 - - - -
01/03:30pm 24.0 N 8 12 1016.2 - 0.0 - - 10 - - - -
01/03:00pm 24.1 NNE 8 13 1016.6 - 0.0 - - 10 - - - -
01/02:30pm 24.7 NNE 8 15 1016.6 - 0.0 - - 10 - - - -
01/02:00pm 24.9 N 7 10 1016.8 - 0.0 - - 10 - - - -
01/01:30pm 24.8 NNE 8 12 1016.9 - 0.0 - - 10 - - - -
01/01:00pm 25.2 NE 6 10 1017.3 - 0.0 - - 10 - - - -
01/12:30pm 24.7 E 7 11 1018.0 - 0.0 - Partly cloudy 10 - - - -
01/12:00pm 25.3 E 7 11 1018.8 - 0.0 - Mostly clear 10 - - - -
01/11:30am 24.4 NNE 8 13 1018.7 - 0.0 - Partly cloudy 10 - - - -
01/11:00am 24.0 N 11 14 1018.5 - 0.0 - Partly cloudy 10 - - - -
01/10:30am 23.5 E 4 7 1019.2 - 0.0 - - 10 - - - -
01/10:00am 22.3 ENE 5 8 1019.7 - 0.0 - - 10 - - - -
01/09:30am 21.5 W 2 5 1019.9 - 0.0 - - 10 - - - -
01/09:00am 20.1 N 1 5 1020.2 - 0.0 - - 10 - - - -
01/08:30am 17.0 CALM 0 0 1020.1 - 0.0 - - 10 - - - -
01/08:00am 13.5 CALM 0 0 1019.8 - 0.0 - - 10 - - - -
01/07:37am 11.4 CALM 0 0 1019.6 - 0.0 - - 10 - - - -
01/07:31am 10.9 CALM 0 0 1019.6 - 0.0 - Partly cloudy 10 - - - -
01/07:30am 11.0 CALM 0 0 1019.6 - 0.0 - Partly cloudy 10 - - - -
01/07:00am 7.8 CALM 0 0 1019.1 - 0.0 - Cloudy 0.3 - - - -
01/06:30am 7.4 CALM 0 0 1018.9 - 0.0 - Cloudy 0.1 - - - -
01/06:00am 7.0 W 2 4 1018.5 - 0.0 - Cloudy 0.1 - - - -
01/05:30am 6.8 CALM 0 0 1018.2 - 0.0 - Cloudy 7 - - - -
01/05:00am 6.3 CALM 0 0 1017.9 - 0.0 - Partly cloudy 10 - - - -
01/04:54am 6.3 CALM 0 0 1017.9 - 0.0 - Partly cloudy 10 - - - -
01/04:30am 6.3 CALM 0 0 1018.0 - 0.0 - - 10 - - - -
01/04:00am 6.9 CALM 0 0 1018.2 - 0.0 - - 10 - - - -
01/03:30am 6.7 CALM 0 0 1018.0 - 0.0 - - 10 - - - -
01/03:00am 7.0 CALM 0 0 1018.0 - 0.0 - - 10 - - - -
01/02:30am 7.4 CALM 0 0 1018.1 - 0.0 - - 10 - - - -
01/02:00am 7.4 CALM 0 0 1018.2 - 0.0 - - 10 - - - -
01/01:30am 7.8 CALM 0 0 1018.3 - 0.0 - - 10 - - - -
01/01:00am 8.1 CALM 0 0 1018.2 - 0.0 - - 10 - - - -
01/12:30am 8.5 CALM 0 0 1018.4 - 0.0 - - 10 - - - -
01/12:00am 8.8 CALM 0 0 1018.7 - 0.0 - - 10 - - - -
 
Date/Time
EST
Temp

°C
Wind Pressure Rain
since 9am
mm
Weather Cloud Vis
km
Sea
Height
m
Swell
Dir
 
Speed
knots
Gust
knots
hPa Trend Height
m
Period
s
Dir
31/11:30pm 9.2 CALM 0 0 1018.8 - 0.0 - - 10 - - - -
31/11:00pm 9.3 CALM 0 0 1018.8 - 0.0 - - 10 - - - -
31/10:30pm 9.1 CALM 0 0 1019.0 - 0.0 - - 10 - - - -
31/10:00pm 9.8 CALM 0 0 1018.9 - 0.0 - - 10 - - - -
31/09:30pm 10.3 CALM 0 3 1018.6 - 0.0 - - 10 - - - -
31/09:00pm 10.7 CALM 0 0 1018.5 - 0.0 - - 10 - - - -
31/08:30pm 11.5 CALM 0 0 1018.2 - 0.0 - - 10 - - - -
31/08:00pm 11.7 CALM 0 0 1018.0 - 0.0 - - 10 - - - -
31/07:30pm 12.3 CALM 0 0 1017.6 - 0.0 - - 10 - - - -
31/07:00pm 13.3 CALM 0 0 1017.1 - 0.0 - - 10 - - - -
31/06:30pm 15.0 CALM 0 2 1016.7 - 0.0 - - 10 - - - -
31/06:00pm 17.7 N 3 5 1016.2 - 0.0 - - 10 - - - -
31/05:30pm 19.8 NNE 4 5 1016.1 - 0.0 - - 10 - - - -
31/05:00pm 21.4 NNE 7 11 1015.8 - 0.0 - - 10 - - - -
31/04:30pm 22.7 ENE 8 12 1015.5 - 0.0 - - 10 - - - -
31/04:00pm 23.1 NE 7 10 1015.4 - 0.0 - - 10 - - - -
31/03:30pm 23.1 NNE 8 11 1015.3 - 0.0 - - 10 - - - -
31/03:00pm 23.9 NNE 8 13 1015.2 - 0.0 - - 10 - - - -
31/02:30pm 23.8 ENE 8 12 1015.4 - 0.0 - Partly cloudy 10 - - - -
31/02:00pm 23.7 NE 9 13 1015.6 - 0.0 - Partly cloudy 10 - - - -
31/01:30pm 23.4 NE 9 13 1015.8 - 0.0 - Partly cloudy 10 - - - -
31/01:00pm 24.9 E 7 12 1016.2 - 0.0 - - 10 - - - -
31/12:30pm 24.2 WNW 5 8 1016.9 - 0.0 - - 10 - - - -
31/12:00pm 24.1 ENE 5 7 1017.3 - 0.0 - - 10 - - - -
31/11:30am 23.9 WNW 4 6 1017.9 - 0.0 - - 10 - - - -
31/11:00am 22.9 SSW 3 7 1018.3 - 0.0 - - 10 - - - -
31/10:30am 22.2 SW 3 5 1018.7 - 0.0 - - 10 - - - -
31/10:00am 21.3 W 3 7 1019.2 - 0.0 - - 10 - - - -

Other Formats:

Comma delimited format used in spreadsheet applications
http://www.bom.gov.au/fwo/IDQ60701/IDQ60701.94370.axf

JavaScript Object Notation format (JSON) in row-major order
http://www.bom.gov.au/fwo/IDQ60701/IDQ60701.94370.json